Time,TemperatureF,DewpointF,PressureIn,WindDirection,WindDirectionDegrees,WindSpeedMPH,WindSpeedGustMPH,Humidity,HourlyPrecipIn,Conditions,Clouds,dailyrainin,SoftwareType,DateUTC
2013-03-08 00:00:00,38.6,26.7,30.08,WNW,296,6.0,18.0,62,0.00,OVC,OVC,0.00,WeatherDisplay:10.31,2013-03-08 05:00:00,
2013-03-08 00:05:00,38.5,27.0,30.08,WNW,297,3.0,13.0,63,0.00,OVC,OVC,0.00,WeatherDisplay:10.31,2013-03-08 05:05:00,
2013-03-08 00:10:00,38.3,26.8,30.08,WNW,294,7.0,17.0,63,0.00,OVC,OVC,0.00,WeatherDisplay:10.31,2013-03-08 05:10:00,
2013-03-08 00:20:00,38.2,26.7,30.08,WNW,291,5.0,12.0,63,0.00,OVC,OVC,0.00,WeatherDisplay:10.31,2013-03-08 05:20:00,
2013-03-08 00:25:00,38.0,26.9,30.08,WNW,296,7.0,13.0,64,0.00,OVC,OVC,0.00,WeatherDisplay:10.31,2013-03-08 05:25:00,
2013-03-08 00:30:00,37.9,26.8,30.08,WNW,300,10.0,20.0,64,0.00,OVC,OVC,0.00,WeatherDisplay:10.31,2013-03-08 05:30:00,
2013-03-08 00:40:00,37.9,26.8,30.08,WNW,298,8.0,14.0,64,0.00,OVC,OVC,0.00,WeatherDisplay:10.31,2013-03-08 05:40:00,
2013-03-08 00:50:00,37.8,26.7,30.08,NW,307,9.0,20.0,64,0.00,OVC,OVC,0.00,WeatherDisplay:10.31,2013-03-08 05:50:00,
2013-03-08 01:00:00,37.8,26.7,30.08,WNW,302,7.0,17.0,64,0.00,OVC,OVC,0.00,WeatherDisplay:10.31,2013-03-08 06:00:00,
2013-03-08 01:05:00,37.8,26.7,30.08,NW,306,6.0,12.0,64,0.00,OVC,OVC,0.00,WeatherDisplay:10.31,2013-03-08 06:05:00,
2013-03-08 01:10:00,37.6,26.1,30.08,NW,305,5.0,14.0,63,0.00,OVC,OVC,0.00,WeatherDisplay:10.31,2013-03-08 06:10:00,
2013-03-08 01:20:00,37.6,26.1,30.09,WNW,301,8.0,17.0,63,0.00,OVC,OVC,0.00,WeatherDisplay:10.31,2013-03-08 06:20:00,
2013-03-08 01:30:00,37.5,26.0,30.09,WNW,302,7.0,20.0,63,0.00,OVC,OVC,0.00,WeatherDisplay:10.31,2013-03-08 06:30:00,
2013-03-08 01:40:00,37.5,26.0,30.09,NW,311,7.0,16.0,63,0.00,OVC,OVC,0.00,WeatherDisplay:10.31,2013-03-08 06:40:00,
2013-03-08 01:50:00,37.3,25.8,30.09,NW,312,8.0,16.0,63,0.00,OVC,OVC,0.00,WeatherDisplay:10.31,2013-03-08 06:50:00,
2013-03-08 02:00:00,37.2,25.8,30.08,WNW,300,6.0,18.0,63,0.00,OVC,OVC,0.00,WeatherDisplay:10.31,2013-03-08 07:00:00,
2013-03-08 02:05:00,37.0,25.6,30.09,WNW,299,7.0,14.0,63,0.00,OVC,OVC,0.00,WeatherDisplay:10.31,2013-03-08 07:05:00,
2013-03-08 02:10:00,37.0,25.6,30.09,WNW,301,10.0,17.0,63,0.00,OVC,OVC,0.00,WeatherDisplay:10.31,2013-03-08 07:10:00,
2013-03-08 02:20:00,36.9,25.5,30.08,NW,314,6.0,17.0,63,0.00,OVC,OVC,0.00,WeatherDisplay:10.31,2013-03-08 07:20:00,
2013-03-08 02:30:00,36.9,25.5,30.08,NW,305,6.0,20.0,63,0.00,OVC,OVC,0.00,WeatherDisplay:10.31,2013-03-08 07:30:00,
2013-03-08 02:40:00,36.8,25.4,30.08,WNW,298,12.0,20.0,63,0.00,OVC,OVC,0.00,WeatherDisplay:10.31,2013-03-08 07:40:00,
2013-03-08 02:50:00,36.8,25.4,30.08,NW,311,6.0,14.0,63,0.00,OVC,OVC,0.00,WeatherDisplay:10.31,2013-03-08 07:50:00,
2013-03-08 03:00:00,36.6,25.2,30.08,NW,319,5.0,14.0,63,0.00,OVC,OVC,0.00,WeatherDisplay:10.31,2013-03-08 08:00:00,
2013-03-08 03:05:00,36.6,25.2,30.08,NW,319,10.0,13.0,63,0.00,OVC,OVC,0.00,WeatherDisplay:10.31,2013-03-08 08:05:00,
2013-03-08 03:10:00,36.6,25.2,30.08,NW,316,7.0,12.0,63,0.00,OVC,OVC,0.00,WeatherDisplay:10.31,2013-03-08 08:10:00,
2013-03-08 03:20:00,36.5,25.5,30.07,NW,316,7.0,18.0,64,0.00,OVC,OVC,0.00,WeatherDisplay:10.31,2013-03-08 08:20:00,
2013-03-08 03:30:00,36.5,25.5,30.07,NW,314,6.0,10.0,64,0.00,OVC,OVC,0.00,WeatherDisplay:10.31,2013-03-08 08:30:00,
2013-03-08 03:40:00,36.5,25.8,30.07,WNW,297,10.0,20.0,65,0.00,OVC,OVC,0.00,WeatherDisplay:10.31,2013-03-08 08:40:00,
2013-03-08 03:50:00,36.5,25.8,30.07,WNW,296,6.0,22.0,65,0.00,OVC,OVC,0.00,WeatherDisplay:10.31,2013-03-08 08:50:00,
2013-03-08 04:00:00,36.3,25.7,30.07,WNW,290,5.0,13.0,65,0.00,OVC,OVC,0.00,WeatherDisplay:10.31,2013-03-08 09:00:00,
2013-03-08 04:05:00,36.2,25.6,30.07,WNW,291,9.0,15.0,65,0.00,OVC,OVC,0.00,WeatherDisplay:10.31,2013-03-08 09:05:00,
2013-03-08 04:10:00,36.2,25.6,30.07,WNW,292,10.0,17.0,65,0.00,OVC,OVC,0.00,WeatherDisplay:10.31,2013-03-08 09:10:00,
2013-03-08 04:20:00,36.2,25.6,30.07,WNW,288,7.0,14.0,65,0.00,OVC,OVC,0.00,WeatherDisplay:10.31,2013-03-08 09:20:00,
2013-03-08 04:30:00,36.0,25.7,30.07,WNW,297,10.0,15.0,66,0.00,OVC,OVC,0.00,WeatherDisplay:10.31,2013-03-08 09:30:00,
2013-03-08 04:40:00,36.2,25.6,30.08,NW,305,9.0,13.0,65,0.00,OVC,OVC,0.00,WeatherDisplay:10.31,2013-03-08 09:40:00,
2013-03-08 04:50:00,36.3,25.3,30.08,WNW,298,13.0,18.0,64,0.00,OVC,OVC,0.00,WeatherDisplay:10.31,2013-03-08 09:50:00,
2013-03-08 05:00:00,36.3,25.3,30.08,WNW,300,6.0,13.0,64,0.00,OVC,OVC,0.00,WeatherDisplay:10.31,2013-03-08 10:00:00,
2013-03-08 05:10:00,36.2,24.8,30.08,NW,307,3.0,12.0,63,0.00,OVC,OVC,0.00,WeatherDisplay:10.31,2013-03-08 10:10:00,
2013-03-08 05:20:00,36.2,24.8,30.08,NW,305,3.0,10.0,63,0.00,OVC,OVC,0.00,WeatherDisplay:10.31,2013-03-08 10:20:00,
2013-03-08 05:30:00,36.2,24.8,30.09,WNW,299,10.0,17.0,63,0.00,OVC,OVC,0.00,WeatherDisplay:10.31,2013-03-08 10:30:00,
2013-03-08 05:40:00,36.2,24.4,30.08,WNW,301,7.0,18.0,62,0.00,OVC,OVC,0.00,WeatherDisplay:10.31,2013-03-08 10:40:00,
2013-03-08 05:50:00,36.2,24.4,30.08,WNW,302,7.0,17.0,62,0.00,OVC,OVC,0.00,WeatherDisplay:10.31,2013-03-08 10:50:00,
2013-03-08 06:00:00,36.2,24.4,30.08,NW,310,6.0,10.0,62,0.00,OVC,OVC,0.00,WeatherDisplay:10.31,2013-03-08 11:00:00,
2013-03-08 06:05:00,36.0,24.2,30.08,NW,304,5.0,13.0,62,0.00,OVC,OVC,0.00,WeatherDisplay:10.31,2013-03-08 11:05:00,
2013-03-08 06:10:00,36.0,24.2,30.08,NW,305,6.0,13.0,62,0.00,OVC,OVC,0.00,WeatherDisplay:10.31,2013-03-08 11:10:00,
2013-03-08 06:20:00,36.0,24.2,30.08,WNW,298,10.0,14.0,62,0.00,OVC,OVC,0.00,WeatherDisplay:10.31,2013-03-08 11:20:00,
2013-03-08 06:30:00,36.2,24.0,30.09,NW,305,10.0,15.0,61,0.00,OVC,OVC,0.00,WeatherDisplay:10.31,2013-03-08 11:30:00,
2013-03-08 06:40:00,36.3,24.1,30.09,WNW,302,7.0,17.0,61,0.00,SCT,SCT,0.00,WeatherDisplay:10.31,2013-03-08 11:40:00,
2013-03-08 06:50:00,36.3,24.1,30.09,NW,316,8.0,15.0,61,0.00,FEW,FEW,0.00,WeatherDisplay:10.31,2013-03-08 11:50:00,
2013-03-08 07:00:00,36.6,24.4,30.09,NW,322,9.0,16.0,61,0.00,BKN,BKN,0.00,WeatherDisplay:10.31,2013-03-08 12:00:00,
2013-03-08 07:05:00,36.6,24.4,30.10,NW,311,8.0,16.0,61,0.00,BKN,BKN,0.00,WeatherDisplay:10.31,2013-03-08 12:05:00,
2013-03-08 07:10:00,36.8,24.6,30.10,NW,316,14.0,22.0,61,0.00,OVC,OVC,0.00,WeatherDisplay:10.31,2013-03-08 12:10:00,
2013-03-08 07:20:00,36.9,24.7,30.10,NW,324,7.0,15.0,61,0.00,CLR,CLR,0.00,WeatherDisplay:10.31,2013-03-08 12:20:00,
2013-03-08 07:30:00,37.2,25.0,30.10,NW,320,12.0,24.0,61,0.00,CLR,CLR,0.00,WeatherDisplay:10.31,2013-03-08 12:30:00,
2013-03-08 07:35:00,37.3,25.1,30.11,NW,321,6.0,20.0,61,0.00,BKN,BKN,0.00,WeatherDisplay:10.31,2013-03-08 12:35:00,
2013-03-08 07:40:00,37.2,25.0,30.11,NW,318,9.0,21.0,61,0.00,OVC,OVC,0.00,WeatherDisplay:10.31,2013-03-08 12:40:00,
2013-03-08 07:50:00,37.2,24.6,30.10,NW,325,10.0,20.0,60,0.00,OVC,OVC,0.00,WeatherDisplay:10.31,2013-03-08 12:50:00,
2013-03-08 08:00:00,37.2,25.0,30.11,NW,326,5.0,17.0,61,0.00,BKN,BKN,0.00,WeatherDisplay:10.31,2013-03-08 13:00:00,
2013-03-08 08:05:00,37.3,25.0,30.11,NNW,329,10.0,17.0,61,0.00,OVC,OVC,0.00,WeatherDisplay:10.31,2013-03-08 13:05:00,
2013-03-08 08:10:00,37.3,25.1,30.11,NNW,330,6.0,18.0,61,0.00,BKN,BKN,0.00,WeatherDisplay:10.31,2013-03-08 13:10:00,
2013-03-08 08:15:00,37.5,25.3,30.11,NW,322,5.0,22.0,61,0.00,OVC,OVC,0.00,WeatherDisplay:10.31,2013-03-08 13:15:00,
2013-03-08 08:20:00,37.6,25.0,30.11,NNW,328,3.0,20.0,60,0.00,BKN,BKN,0.00,WeatherDisplay:10.31,2013-03-08 13:20:00,
2013-03-08 08:30:00,37.8,24.7,30.11,NNW,333,13.0,23.0,59,0.00,BKN,BKN,0.00,WeatherDisplay:10.31,2013-03-08 13:30:00,
2013-03-08 08:40:00,38.0,24.9,30.11,NW,322,5.0,17.0,59,0.00,OVC,OVC,0.00,WeatherDisplay:10.31,2013-03-08 13:40:00,
2013-03-08 08:50:00,38.0,24.9,30.11,NW,326,13.0,22.0,59,0.00,OVC,OVC,0.00,WeatherDisplay:10.31,2013-03-08 13:50:00,
2013-03-08 09:00:00,38.2,25.5,30.11,NW,316,10.0,20.0,60,0.00,OVC,OVC,0.00,WeatherDisplay:10.31,2013-03-08 14:00:00,
2013-03-08 09:05:00,38.2,25.5,30.11,NNW,328,13.0,21.0,60,0.00,BKN,BKN,0.00,WeatherDisplay:10.31,2013-03-08 14:05:00,
2013-03-08 09:10:00,38.2,25.5,30.11,NW,324,8.0,20.0,60,0.00,BKN,BKN,0.00,WeatherDisplay:10.31,2013-03-08 14:10:00,
2013-03-08 09:20:00,38.5,25.8,30.11,NW,317,12.0,22.0,60,0.00,BKN,BKN,0.00,WeatherDisplay:10.31,2013-03-08 14:20:00,
2013-03-08 09:30:00,39.2,26.1,30.11,NW,316,10.0,16.0,59,0.00,BKN,BKN,0.00,WeatherDisplay:10.31,2013-03-08 14:30:00,
2013-03-08 09:40:00,39.8,25.4,30.11,NW,307,6.0,20.0,56,0.00,BKN,BKN,0.00,WeatherDisplay:10.31,2013-03-08 14:40:00,
2013-03-08 09:50:00,39.8,24.1,30.11,NW,318,15.0,26.0,53,0.00,OVC,OVC,0.00,WeatherDisplay:10.31,2013-03-08 14:50:00,
2013-03-08 09:55:00,39.8,23.6,30.11,NW,322,14.0,24.0,52,0.00,OVC,OVC,0.00,WeatherDisplay:10.31,2013-03-08 14:55:00,
2013-03-08 10:05:00,39.5,22.4,30.11,NNW,332,15.0,29.0,50,0.00,BKN,BKN,0.00,WeatherDisplay:10.31,2013-03-08 15:05:00,
2013-03-08 10:10:00,39.8,22.7,30.11,NNW,335,16.0,26.0,50,0.00,BKN,BKN,0.00,WeatherDisplay:10.31,2013-03-08 15:10:00,
2013-03-08 10:20:00,40.6,22.4,30.11,NNW,337,13.0,26.0,48,0.00,CLR,CLR,0.00,WeatherDisplay:10.31,2013-03-08 15:20:00,
2013-03-08 10:30:00,41.2,23.5,30.11,NNW,334,15.0,24.0,49,0.00,OVC,OVC,0.00,WeatherDisplay:10.31,2013-03-08 15:30:00,
2013-03-08 10:40:00,41.0,21.7,30.12,NNW,329,8.0,26.0,46,0.00,BKN,BKN,0.00,WeatherDisplay:10.31,2013-03-08 15:40:00,
2013-03-08 10:50:00,42.2,22.3,30.11,NNW,332,13.0,28.0,45,0.00,CLR,CLR,0.00,WeatherDisplay:10.31,2013-03-08 15:50:00,
2013-03-08 11:00:00,43.5,24.6,30.11,NW,313,13.0,23.0,47,0.00,CLR,CLR,0.00,WeatherDisplay:10.31,2013-03-08 16:00:00,
2013-03-08 11:05:00,43.8,23.8,30.11,NW,324,7.0,20.0,45,0.00,BKN,BKN,0.00,WeatherDisplay:10.31,2013-03-08 16:05:00,
2013-03-08 11:10:00,43.9,23.4,30.11,NW,311,15.0,25.0,44,0.00,BKN,BKN,0.00,WeatherDisplay:10.31,2013-03-08 16:10:00,
2013-03-08 11:20:00,43.5,23.5,30.11,NW,304,6.0,24.0,45,0.00,CLR,CLR,0.00,WeatherDisplay:10.31,2013-03-08 16:20:00,
2013-03-08 11:30:00,44.3,22.1,30.11,NW,305,18.0,28.0,41,0.00,CLR,CLR,0.00,WeatherDisplay:10.31,2013-03-08 16:30:00,
2013-03-08 11:40:00,45.0,22.7,30.11,NW,323,15.0,26.0,41,0.00,CLR,CLR,0.00,WeatherDisplay:10.31,2013-03-08 16:40:00,
2013-03-08 11:50:00,45.7,22.7,30.11,WNW,303,14.0,26.0,40,0.00,CLR,CLR,0.00,WeatherDisplay:10.31,2013-03-08 16:50:00,
2013-03-08 12:00:00,46.1,23.1,30.10,NW,306,15.0,22.0,40,0.00,CLR,CLR,0.00,WeatherDisplay:10.31,2013-03-08 17:00:00,
2013-03-08 12:05:00,46.5,22.8,30.11,NW,311,15.0,29.0,39,0.00,CLR,CLR,0.00,WeatherDisplay:10.31,2013-03-08 17:05:00,
2013-03-08 12:10:00,46.4,22.8,30.11,NW,316,14.0,25.0,39,0.00,CLR,CLR,0.00,WeatherDisplay:10.31,2013-03-08 17:10:00,
2013-03-08 12:20:00,46.2,22.6,30.11,NW,322,13.0,20.0,39,0.00,CLR,CLR,0.00,WeatherDisplay:10.31,2013-03-08 17:20:00,
2013-03-08 12:30:00,46.8,21.9,30.10,WNW,297,17.0,31.0,37,0.00,CLR,CLR,0.00,WeatherDisplay:10.31,2013-03-08 17:30:00,
2013-03-08 12:40:00,47.6,22.6,30.09,NW,311,18.0,25.0,37,0.00,CLR,CLR,0.00,WeatherDisplay:10.31,2013-03-08 17:40:00,
2013-03-08 12:50:00,48.3,22.5,30.08,NW,305,15.0,25.0,36,0.00,CLR,CLR,0.00,WeatherDisplay:10.31,2013-03-08 17:50:00,
2013-03-08 13:00:00,48.8,23.0,30.08,NW,316,13.0,18.0,36,0.00,CLR,CLR,0.00,WeatherDisplay:10.31,2013-03-08 18:00:00,
2013-03-08 13:05:00,48.8,22.3,30.08,NW,322,13.0,22.0,35,0.00,CLR,CLR,0.00,WeatherDisplay:10.31,2013-03-08 18:05:00,
2013-03-08 13:10:00,48.9,22.4,30.08,NW,307,17.0,32.0,35,0.00,CLR,CLR,0.00,WeatherDisplay:10.31,2013-03-08 18:10:00,
2013-03-08 13:20:00,49.4,22.9,30.08,NW,304,10.0,29.0,35,0.00,CLR,CLR,0.00,WeatherDisplay:10.31,2013-03-08 18:20:00,
2013-03-08 13:30:00,49.8,23.2,30.07,NW,325,17.0,25.0,35,0.00,CLR,CLR,0.00,WeatherDisplay:10.31,2013-03-08 18:30:00,
2013-03-08 13:35:00,50.1,23.5,30.07,NW,326,6.0,20.0,35,0.00,CLR,CLR,0.00,WeatherDisplay:10.31,2013-03-08 18:35:00,
2013-03-08 13:40:00,50.4,23.1,30.08,NNW,329,10.0,22.0,34,0.00,CLR,CLR,0.00,WeatherDisplay:10.31,2013-03-08 18:40:00,
2013-03-08 13:50:00,50.9,23.5,30.07,NW,323,13.0,24.0,34,0.00,CLR,CLR,0.00,WeatherDisplay:10.31,2013-03-08 18:50:00,
2013-03-08 14:00:00,51.1,23.7,30.07,WNW,297,14.0,24.0,34,0.00,CLR,CLR,0.00,WeatherDisplay:10.31,2013-03-08 19:00:00,
2013-03-08 14:05:00,51.4,23.9,30.07,WNW,296,16.0,25.0,34,0.00,CLR,CLR,0.00,WeatherDisplay:10.31,2013-03-08 19:05:00,
2013-03-08 14:10:00,51.4,23.9,30.07,NW,310,6.0,22.0,34,0.00,CLR,CLR,0.00,WeatherDisplay:10.31,2013-03-08 19:10:00,
2013-03-08 14:20:00,52.2,23.9,30.07,NW,322,15.0,20.0,33,0.00,OVC,OVC,0.00,WeatherDisplay:10.31,2013-03-08 19:20:00,
2013-03-08 14:30:00,51.7,23.5,30.07,WNW,295,14.0,29.0,33,0.00,CLR,CLR,0.00,WeatherDisplay:10.31,2013-03-08 19:30:00,
2013-03-08 14:40:00,50.5,23.8,30.08,NW,317,13.0,21.0,35,0.00,OVC,OVC,0.00,WeatherDisplay:10.31,2013-03-08 19:40:00,
2013-03-08 14:45:00,49.9,24.0,30.08,NW,320,8.0,20.0,36,0.00,OVC,OVC,0.00,WeatherDisplay:10.31,2013-03-08 19:45:00,
2013-03-08 14:50:00,49.8,23.9,30.08,NW,317,12.0,20.0,36,0.00,OVC,OVC,0.00,WeatherDisplay:10.31,2013-03-08 19:50:00,
2013-03-08 15:00:00,50.8,24.7,30.08,NNW,329,14.0,26.0,36,0.00,CLR,CLR,0.00,WeatherDisplay:10.31,2013-03-08 20:00:00,
2013-03-08 15:05:00,51.0,24.3,30.08,NNW,342,6.0,17.0,35,0.00,BKN,BKN,0.00,WeatherDisplay:10.31,2013-03-08 20:05:00,
2013-03-08 15:10:00,51.1,24.3,30.08,NNW,344,14.0,17.0,35,0.00,OVC,OVC,0.00,WeatherDisplay:10.31,2013-03-08 20:10:00,
2013-03-08 15:20:00,50.1,24.2,30.09,NNW,328,13.0,22.0,36,0.00,OVC,OVC,0.00,WeatherDisplay:10.31,2013-03-08 20:20:00,
2013-03-08 15:30:00,50.4,24.4,30.09,NW,323,12.0,22.0,36,0.00,CLR,CLR,0.00,WeatherDisplay:10.31,2013-03-08 20:30:00,
2013-03-08 15:40:00,51.9,25.1,30.09,NNW,341,12.0,23.0,35,0.00,CLR,CLR,0.00,WeatherDisplay:10.31,2013-03-08 20:40:00,
2013-03-08 15:50:00,53.0,25.4,30.09,NNW,343,12.0,18.0,34,0.00,CLR,CLR,0.00,WeatherDisplay:10.31,2013-03-08 20:50:00,
2013-03-08 16:00:00,53.3,24.2,30.09,NNW,342,10.0,25.0,32,0.00,CLR,CLR,0.00,WeatherDisplay:10.31,2013-03-08 21:00:00,
2013-03-08 16:05:00,53.4,25.0,30.09,NNW,337,10.0,20.0,33,0.00,CLR,CLR,0.00,WeatherDisplay:10.31,2013-03-08 21:05:00,
2013-03-08 16:10:00,53.6,24.4,30.09,NNW,333,16.0,20.0,32,0.00,CLR,CLR,0.00,WeatherDisplay:10.31,2013-03-08 21:10:00,
2013-03-08 16:15:00,53.3,24.2,30.09,NNW,332,12.0,17.0,32,0.00,BKN,BKN,0.00,WeatherDisplay:10.31,2013-03-08 21:15:00,
2013-03-08 16:20:00,53.1,24.7,30.09,NNW,337,12.0,20.0,33,0.00,CLR,CLR,0.00,WeatherDisplay:10.31,2013-03-08 21:20:00,
2013-03-08 16:30:00,52.2,24.6,30.09,NNW,328,12.0,25.0,34,0.00,FEW,FEW,0.00,WeatherDisplay:10.31,2013-03-08 21:30:00,
2013-03-08 16:40:00,51.3,25.2,30.09,NNW,337,10.0,20.0,36,0.00,CLR,CLR,0.00,WeatherDisplay:10.31,2013-03-08 21:40:00,
2013-03-08 16:50:00,51.9,25.1,30.10,NNW,338,12.0,21.0,35,0.00,CLR,CLR,0.00,WeatherDisplay:10.31,2013-03-08 21:50:00,
2013-03-08 17:00:00,50.8,24.8,30.11,NNW,329,9.0,21.0,36,0.00,SCT,SCT,0.00,WeatherDisplay:10.31,2013-03-08 22:00:00,
2013-03-08 17:05:00,50.4,25.1,30.11,NNW,332,8.0,25.0,37,0.00,SCT,SCT,0.00,WeatherDisplay:10.31,2013-03-08 22:05:00,
2013-03-08 17:10:00,50.1,24.8,30.11,NNW,329,10.0,22.0,37,0.00,CLR,CLR,0.00,WeatherDisplay:10.31,2013-03-08 22:10:00,
2013-03-08 17:20:00,49.9,24.6,30.12,NNW,335,15.0,26.0,37,0.00,CLR,CLR,0.00,WeatherDisplay:10.31,2013-03-08 22:20:00,
2013-03-08 17:25:00,49.9,24.6,30.12,NNW,340,13.0,30.0,37,0.00,SCT,SCT,0.00,WeatherDisplay:10.31,2013-03-08 22:25:00,
2013-03-08 17:30:00,49.9,25.3,30.12,NNW,342,8.0,20.0,38,0.00,FEW,FEW,0.00,WeatherDisplay:10.31,2013-03-08 22:30:00,
2013-03-08 17:35:00,49.9,25.3,30.13,NNW,340,9.0,17.0,38,0.00,SCT,SCT,0.00,WeatherDisplay:10.31,2013-03-08 22:35:00,
2013-03-08 17:40:00,49.9,25.3,30.13,NNW,336,1.0,20.0,38,0.00,BKN,BKN,0.00,WeatherDisplay:10.31,2013-03-08 22:40:00,
2013-03-08 17:45:00,49.9,25.3,30.13,NNW,334,15.0,23.0,38,0.00,SCT,SCT,0.00,WeatherDisplay:10.31,2013-03-08 22:45:00,
2013-03-08 17:50:00,49.8,25.2,30.14,NNW,334,8.0,23.0,38,0.00,OVC,OVC,0.00,WeatherDisplay:10.31,2013-03-08 22:50:00,
2013-03-08 18:00:00,49.3,25.4,30.14,NNW,329,7.0,18.0,39,0.00,BKN,BKN,0.00,WeatherDisplay:10.31,2013-03-08 23:00:00,
2013-03-08 18:05:00,49.1,25.8,30.14,NNW,330,8.0,20.0,40,0.00,OVC,OVC,0.00,WeatherDisplay:10.31,2013-03-08 23:05:00,
2013-03-08 18:10:00,48.9,25.6,30.14,NNW,342,9.0,13.0,40,0.00,OVC,OVC,0.00,WeatherDisplay:10.31,2013-03-08 23:10:00,
2013-03-08 18:20:00,48.6,25.3,30.14,NNW,341,6.0,21.0,40,0.00,OVC,OVC,0.00,WeatherDisplay:10.31,2013-03-08 23:20:00,
2013-03-08 18:30:00,48.5,25.8,30.15,NNW,332,9.0,17.0,41,0.00,OVC,OVC,0.00,WeatherDisplay:10.31,2013-03-08 23:30:00,
2013-03-08 18:40:00,48.2,25.6,30.15,NNW,343,16.0,23.0,41,0.00,OVC,OVC,0.00,WeatherDisplay:10.31,2013-03-08 23:40:00,
2013-03-08 18:50:00,48.0,26.0,30.16,NNW,343,15.0,20.0,42,0.00,OVC,OVC,0.00,WeatherDisplay:10.31,2013-03-08 23:50:00,
2013-03-08 19:00:00,47.8,25.3,30.16,NNW,335,16.0,20.0,41,0.00,OVC,OVC,0.00,WeatherDisplay:10.31,2013-03-09 00:00:00,
2013-03-08 19:10:00,47.6,25.6,30.16,NNW,334,12.0,17.0,42,0.00,OVC,OVC,0.00,WeatherDisplay:10.31,2013-03-09 00:10:00,
2013-03-08 19:20:00,47.4,24.9,30.16,NNW,336,10.0,20.0,41,0.00,OVC,OVC,0.00,WeatherDisplay:10.31,2013-03-09 00:20:00,
2013-03-08 19:30:00,47.3,25.3,30.17,NNW,337,8.0,20.0,42,0.00,OVC,OVC,0.00,WeatherDisplay:10.31,2013-03-09 00:30:00,
2013-03-08 19:40:00,47.1,25.2,30.17,NNW,335,13.0,20.0,42,0.00,OVC,OVC,0.00,WeatherDisplay:10.31,2013-03-09 00:40:00,
2013-03-08 19:50:00,47.1,25.2,30.17,NNW,335,13.0,24.0,42,0.00,OVC,OVC,0.00,WeatherDisplay:10.31,2013-03-09 00:50:00,
2013-03-08 20:00:00,47.0,25.1,30.18,NW,324,12.0,18.0,42,0.00,OVC,OVC,0.00,WeatherDisplay:10.31,2013-03-09 01:00:00,
2013-03-08 20:05:00,47.0,25.1,30.18,NNW,328,8.0,18.0,42,0.00,OVC,OVC,0.00,WeatherDisplay:10.31,2013-03-09 01:05:00,
2013-03-08 20:10:00,47.0,25.1,30.18,NNW,330,8.0,17.0,42,0.00,OVC,OVC,0.00,WeatherDisplay:10.31,2013-03-09 01:10:00,
2013-03-08 20:20:00,46.8,24.9,30.18,NNW,327,8.0,17.0,42,0.00,OVC,OVC,0.00,WeatherDisplay:10.31,2013-03-09 01:20:00,
2013-03-08 20:30:00,46.8,24.9,30.19,NNW,333,10.0,16.0,42,0.00,OVC,OVC,0.00,WeatherDisplay:10.31,2013-03-09 01:30:00,
2013-03-08 20:40:00,46.8,24.9,30.19,NNW,327,10.0,21.0,42,0.00,OVC,OVC,0.00,WeatherDisplay:10.31,2013-03-09 01:40:00,
2013-03-08 20:50:00,46.8,24.9,30.19,NNW,337,10.0,16.0,42,0.00,OVC,OVC,0.00,WeatherDisplay:10.31,2013-03-09 01:50:00,
2013-03-08 21:00:00,46.8,25.5,30.19,NW,325,8.0,14.0,43,0.00,OVC,OVC,0.00,WeatherDisplay:10.31,2013-03-09 02:00:00,
2013-03-08 21:05:00,46.7,25.4,30.19,NW,321,12.0,17.0,43,0.00,OVC,OVC,0.00,WeatherDisplay:10.31,2013-03-09 02:05:00,
2013-03-08 21:10:00,46.5,25.7,30.19,NW,322,8.0,13.0,44,0.00,OVC,OVC,0.00,WeatherDisplay:10.31,2013-03-09 02:10:00,
2013-03-08 21:20:00,46.2,25.5,30.19,NW,308,6.0,14.0,44,0.00,OVC,OVC,0.00,WeatherDisplay:10.31,2013-03-09 02:20:00,
2013-03-08 21:30:00,46.0,25.8,30.19,NW,318,8.0,17.0,45,0.00,OVC,OVC,0.00,WeatherDisplay:10.31,2013-03-09 02:30:00,
2013-03-08 21:40:00,45.7,25.5,30.19,NW,317,7.0,17.0,45,0.00,OVC,OVC,0.00,WeatherDisplay:10.31,2013-03-09 02:40:00,
2013-03-08 21:50:00,45.4,25.3,30.19,NW,319,5.0,13.0,45,0.00,OVC,OVC,0.00,WeatherDisplay:10.31,2013-03-09 02:50:00,
2013-03-08 22:00:00,45.2,24.6,30.19,NW,311,10.0,17.0,44,0.00,OVC,OVC,0.00,WeatherDisplay:10.31,2013-03-09 03:00:00,
2013-03-08 22:05:00,45.1,24.5,30.19,NW,316,9.0,20.0,44,0.00,OVC,OVC,0.00,WeatherDisplay:10.31,2013-03-09 03:05:00,
2013-03-08 22:10:00,44.9,24.3,30.19,NW,307,8.0,16.0,44,0.00,OVC,OVC,0.00,WeatherDisplay:10.31,2013-03-09 03:10:00,
2013-03-08 22:20:00,44.6,24.0,30.19,NW,311,8.0,12.0,44,0.00,OVC,OVC,0.00,WeatherDisplay:10.31,2013-03-09 03:20:00,
2013-03-08 22:30:00,44.5,24.4,30.19,NW,304,5.0,14.0,45,0.00,OVC,OVC,0.00,WeatherDisplay:10.31,2013-03-09 03:30:00,
2013-03-08 22:40:00,44.1,24.6,30.19,NW,309,7.0,17.0,46,0.00,OVC,OVC,0.00,WeatherDisplay:10.31,2013-03-09 03:40:00,
2013-03-08 22:50:00,43.6,24.7,30.19,NW,312,6.0,17.0,47,0.00,OVC,OVC,0.00,WeatherDisplay:10.31,2013-03-09 03:50:00,
2013-03-08 23:00:00,43.3,24.9,30.19,NW,314,2.0,18.0,48,0.00,OVC,OVC,0.00,WeatherDisplay:10.31,2013-03-09 04:00:00,
2013-03-08 23:05:00,43.1,24.7,30.19,NW,317,6.0,12.0,48,0.00,OVC,OVC,0.00,WeatherDisplay:10.31,2013-03-09 04:05:00,
2013-03-08 23:10:00,42.9,25.0,30.19,NW,317,2.0,10.0,49,0.00,OVC,OVC,0.00,WeatherDisplay:10.31,2013-03-09 04:10:00,
2013-03-08 23:15:00,42.6,25.2,30.20,NNW,330,2.0,14.0,50,0.00,OVC,OVC,0.00,WeatherDisplay:10.31,2013-03-09 04:15:00,
2013-03-08 23:25:00,42.3,25.4,30.20,NNW,333,2.0,12.0,51,0.00,OVC,OVC,0.00,WeatherDisplay:10.31,2013-03-09 04:25:00,
2013-03-08 23:30:00,42.2,25.3,30.20,NNW,333,3.0,12.0,51,0.00,OVC,OVC,0.00,WeatherDisplay:10.31,2013-03-09 04:30:00,
2013-03-08 23:40:00,41.8,25.4,30.20,NNW,328,8.0,12.0,52,0.00,OVC,OVC,0.00,WeatherDisplay:10.31,2013-03-09 04:40:00,
2013-03-08 23:50:00,41.5,25.6,30.19,NW,321,3.0,10.0,53,0.00,OVC,OVC,0.00,WeatherDisplay:10.31,2013-03-09 04:50:00,